createdAt,value
2017-04-17T00:00:25.154Z,59.10
2017-04-17T00:01:24.444Z,59.30
2017-04-17T00:02:23.561Z,59.50
2017-04-17T00:03:23.417Z,59.50
2017-04-17T00:04:22.532Z,59.30
2017-04-17T00:05:21.728Z,59.50
2017-04-17T00:06:21.591Z,59.60
2017-04-17T00:07:20.724Z,59.60
2017-04-17T00:08:19.832Z,59.70
2017-04-17T00:09:18.948Z,59.80
2017-04-17T00:10:18.056Z,59.80
2017-04-17T00:11:17.175Z,59.90
2017-04-17T00:12:17.044Z,59.90
2017-04-17T00:13:16.192Z,59.90
2017-04-17T00:14:15.333Z,59.90
2017-04-17T00:15:14.446Z,60.00
2017-04-17T00:16:14.302Z,60.10
2017-04-17T00:17:13.453Z,59.90
2017-04-17T00:18:12.569Z,59.90
2017-04-17T00:19:11.683Z,60.20
2017-04-17T00:20:10.803Z,60.50
2017-04-17T00:21:09.913Z,60.50
2017-04-17T00:22:09.031Z,60.10
2017-04-17T00:23:08.167Z,60.30
2017-04-17T00:24:07.280Z,60.40
2017-04-17T00:25:06.404Z,60.30
2017-04-17T00:26:05.536Z,60.20
2017-04-17T00:27:04.657Z,60.30
2017-04-17T00:28:03.817Z,60.20
2017-04-17T00:29:03.023Z,60.20
2017-04-17T00:30:02.144Z,60.00
2017-04-17T00:31:02.000Z,60.10
2017-04-17T00:32:01.108Z,60.10
2017-04-17T00:33:00.220Z,60.20
2017-04-17T00:34:00.076Z,59.90
2017-04-17T00:34:59.191Z,59.80
2017-04-17T00:35:58.301Z,60.00
2017-04-17T00:36:57.405Z,59.90
2017-04-17T00:37:56.522Z,59.90
2017-04-17T00:38:55.653Z,59.80
2017-04-17T00:39:54.856Z,59.80
2017-04-17T00:40:53.992Z,59.80
2017-04-17T00:41:53.104Z,59.80
2017-04-17T00:42:52.952Z,59.90
2017-04-17T00:43:52.064Z,59.90
2017-04-17T00:44:51.184Z,59.90
2017-04-17T00:45:51.037Z,60.20
2017-04-17T00:46:50.168Z,60.00
2017-04-17T00:47:50.024Z,59.90
2017-04-17T00:48:49.134Z,59.70
2017-04-17T00:49:48.591Z,60.40
2017-04-17T00:50:47.699Z,59.70
2017-04-17T00:51:46.824Z,59.80
2017-04-17T00:52:46.661Z,59.90
2017-04-17T00:53:45.760Z,60.00
2017-04-17T00:54:45.012Z,59.90
2017-04-17T00:55:44.128Z,59.80
2017-04-17T00:56:43.224Z,59.90
2017-04-17T00:57:42.345Z,60.10
2017-04-17T00:58:42.176Z,60.30
2017-04-17T00:59:41.292Z,61.50
2017-04-17T01:00:40.404Z,60.60
2017-04-17T01:01:39.560Z,60.60
2017-04-17T01:02:38.651Z,60.30
2017-04-17T01:03:37.756Z,60.70
2017-04-17T01:04:36.858Z,60.80
2017-04-17T01:05:36.696Z,60.60
2017-04-17T01:06:35.818Z,60.60
2017-04-17T01:07:34.916Z,60.60
2017-04-17T01:08:34.061Z,60.50
2017-04-17T01:09:33.287Z,59.90
2017-04-17T01:10:32.383Z,60.20
2017-04-17T01:11:31.516Z,60.60
2017-04-17T01:12:30.616Z,60.40
2017-04-17T01:13:29.720Z,60.40
2017-04-17T01:14:28.816Z,60.50
2017-04-17T01:15:27.915Z,60.70
2017-04-17T01:16:27.017Z,60.90
2017-04-17T01:17:26.885Z,60.70
2017-04-17T01:18:25.976Z,60.70
2017-04-17T01:19:25.076Z,59.20
2017-04-17T01:20:24.164Z,58.50
2017-04-17T01:21:23.272Z,58.70
2017-04-17T01:22:23.134Z,58.40
2017-04-17T01:23:22.238Z,57.70
2017-04-17T01:24:21.337Z,57.60
2017-04-17T01:25:21.188Z,57.40
2017-04-17T01:26:20.288Z,57.00
2017-04-17T01:27:19.404Z,56.80
2017-04-17T01:28:18.501Z,56.90
2017-04-17T01:29:18.413Z,57.10
2017-04-17T01:30:17.529Z,57.00
2017-04-17T01:31:16.628Z,57.10
2017-04-17T01:32:15.736Z,57.00
2017-04-17T01:33:14.853Z,56.80
2017-04-17T01:34:13.959Z,56.80
2017-04-17T01:35:13.057Z,56.90
2017-04-17T01:36:12.162Z,56.70
2017-04-17T01:37:11.285Z,56.70
2017-04-17T01:38:11.148Z,56.80
2017-04-17T01:39:10.244Z,56.60
2017-04-17T01:40:09.358Z,56.80
2017-04-17T01:41:09.193Z,57.10
2017-04-17T01:42:08.327Z,56.80
2017-04-17T01:43:07.436Z,56.90
2017-04-17T01:44:07.587Z,57.00
2017-04-17T01:45:06.759Z,57.10
2017-04-17T01:46:05.873Z,57.30
2017-04-17T01:47:04.970Z,57.20
2017-04-17T01:48:04.068Z,57.40
2017-04-17T01:49:03.169Z,57.80
2017-04-17T01:50:03.056Z,58.30
2017-04-17T01:51:02.160Z,58.60
2017-04-17T01:52:02.011Z,58.70
2017-04-17T01:53:01.108Z,59.10
2017-04-17T01:54:00.216Z,59.90
2017-04-17T01:54:59.320Z,60.50
2017-04-17T01:55:59.179Z,61.00
2017-04-17T01:56:58.276Z,61.50
2017-04-17T01:57:57.376Z,61.80
2017-04-17T01:58:56.483Z,62.30
2017-04-17T01:59:56.336Z,62.40
2017-04-17T02:00:55.448Z,62.20
2017-04-17T02:01:54.808Z,62.20
2017-04-17T02:02:53.913Z,62.60
2017-04-17T02:03:53.003Z,63.00
2017-04-17T02:04:52.108Z,63.00
2017-04-17T02:05:51.204Z,63.00
2017-04-17T02:06:51.104Z,63.00
2017-04-17T02:07:51.028Z,63.30
2017-04-17T02:08:50.128Z,63.50
2017-04-17T02:09:49.227Z,63.80
2017-04-17T02:10:48.376Z,63.90
2017-04-17T02:11:48.280Z,63.90
2017-04-17T02:12:48.143Z,64.10
2017-04-17T02:13:47.241Z,64.50
2017-04-17T02:14:46.347Z,64.50
2017-04-17T02:15:46.187Z,64.50
2017-04-17T02:16:45.388Z,64.70
2017-04-17T02:17:44.520Z,65.00
2017-04-17T02:18:43.626Z,65.60
2017-04-17T02:19:42.728Z,66.00
2017-04-17T02:20:41.829Z,66.10
2017-04-17T02:21:40.931Z,66.20
2017-04-17T02:22:40.037Z,66.60
2017-04-17T02:23:39.204Z,66.80
2017-04-17T02:24:38.353Z,66.60
2017-04-17T02:25:37.460Z,66.70
2017-04-17T02:26:36.561Z,67.10
2017-04-17T02:27:35.677Z,67.30
2017-04-17T02:28:34.796Z,67.20
2017-04-17T02:29:33.896Z,67.20
2017-04-17T02:30:33.000Z,67.30
2017-04-17T02:31:32.144Z,67.40
2017-04-17T02:32:31.248Z,68.10
2017-04-17T02:33:30.395Z,67.30
2017-04-17T02:34:30.256Z,67.50
2017-04-17T02:35:29.350Z,67.50
2017-04-17T02:36:28.449Z,67.20
2017-04-17T02:38:26.944Z,67.60
2017-04-17T02:39:26.064Z,67.60
2017-04-17T02:40:25.189Z,67.80
2017-04-17T02:41:24.288Z,67.70
2017-04-17T02:42:23.387Z,67.70
2017-04-17T02:43:23.237Z,68.30
2017-04-17T02:44:22.329Z,67.40
2017-04-17T02:45:21.712Z,67.20
2017-04-17T02:46:20.804Z,67.20
2017-04-17T02:47:19.905Z,67.40
2017-04-17T02:48:19.005Z,67.50
2017-04-17T02:49:18.117Z,67.60
2017-04-17T02:50:17.984Z,67.50
2017-04-17T02:51:17.113Z,67.40
2017-04-17T02:52:16.220Z,67.30
2017-04-17T02:53:15.337Z,67.40
2017-04-17T02:54:14.527Z,67.50
2017-04-17T02:55:13.639Z,67.70
2017-04-17T02:56:13.387Z,67.90
2017-04-17T02:57:12.487Z,67.70
2017-04-17T02:58:11.592Z,67.30
2017-04-17T02:59:10.700Z,67.50
2017-04-17T03:00:10.632Z,68.20
2017-04-17T03:01:09.744Z,67.40
2017-04-17T03:02:08.875Z,67.80
2017-04-17T03:03:08.032Z,68.00
2017-04-17T03:04:07.141Z,67.80
2017-04-17T03:05:06.256Z,67.90
2017-04-17T03:06:05.420Z,67.80
2017-04-17T03:07:04.552Z,67.70
2017-04-17T03:08:03.660Z,67.60
2017-04-17T03:09:02.825Z,67.40
2017-04-17T03:10:01.934Z,67.20
2017-04-17T03:11:01.057Z,67.10
2017-04-17T03:12:00.983Z,66.90
2017-04-17T03:13:00.109Z,66.90
2017-04-17T03:13:59.228Z,66.90
2017-04-17T03:14:59.081Z,67.20
2017-04-17T03:15:58.188Z,67.40
2017-04-17T03:16:57.301Z,67.20
2017-04-17T03:17:57.173Z,67.00
2017-04-17T03:18:56.276Z,66.80
2017-04-17T03:19:55.389Z,66.40
2017-04-17T03:20:54.503Z,66.50
2017-04-17T03:21:53.615Z,66.70
2017-04-17T03:22:52.726Z,67.00
2017-04-17T03:23:51.864Z,67.10
2017-04-17T03:24:50.977Z,67.10
2017-04-17T03:25:50.096Z,67.10
2017-04-17T03:26:49.968Z,67.30
2017-04-17T03:27:49.859Z,67.30
2017-04-17T03:28:48.994Z,67.30
2017-04-17T03:29:48.111Z,67.40
2017-04-17T03:30:47.225Z,67.50
2017-04-17T03:31:46.332Z,67.40
2017-04-17T03:32:45.443Z,67.30
2017-04-17T03:33:44.560Z,67.20
2017-04-17T03:34:43.684Z,67.30
2017-04-17T03:35:42.789Z,67.30
2017-04-17T03:36:42.645Z,67.10
2017-04-17T03:37:41.847Z,67.20
2017-04-17T03:38:40.964Z,67.10
2017-04-17T03:39:40.833Z,67.10
2017-04-17T03:40:39.948Z,66.90
2017-04-17T03:41:39.804Z,66.90
2017-04-17T03:42:38.911Z,66.70
2017-04-17T03:43:38.024Z,66.90
2017-04-17T03:44:37.872Z,67.30
2017-04-17T03:45:36.996Z,67.20
2017-04-17T03:46:36.101Z,67.20
2017-04-17T03:47:35.971Z,67.20
2017-04-17T03:48:35.076Z,67.20
2017-04-17T03:49:34.183Z,67.20
2017-04-17T03:50:34.077Z,67.10
2017-04-17T03:51:33.932Z,67.10
2017-04-17T03:52:33.036Z,67.00
2017-04-17T03:53:32.160Z,67.20
2017-04-17T03:54:31.276Z,67.40
2017-04-17T03:55:30.384Z,67.80
2017-04-17T03:56:29.509Z,67.90
2017-04-17T03:57:29.365Z,67.70
2017-04-17T03:58:28.476Z,67.80
2017-04-17T03:59:27.597Z,67.90
2017-04-17T04:00:26.716Z,67.90
2017-04-17T04:01:25.856Z,68.00
2017-04-17T04:02:25.039Z,68.10
2017-04-17T04:03:24.152Z,68.20
2017-04-17T04:04:23.282Z,68.30
2017-04-17T04:05:22.396Z,68.60
2017-04-17T04:06:22.244Z,68.80
2017-04-17T04:07:21.371Z,68.90
2017-04-17T04:08:20.490Z,69.10
2017-04-17T04:09:19.668Z,69.10
2017-04-17T04:10:19.523Z,69.10
2017-04-17T04:11:18.643Z,68.80
2017-04-17T04:12:17.771Z,68.80
2017-04-17T04:13:16.890Z,68.50
2017-04-17T04:14:15.992Z,68.30
2017-04-17T04:15:15.103Z,68.30
2017-04-17T04:16:14.215Z,68.40
2017-04-17T04:17:13.328Z,68.60
2017-04-17T04:18:12.468Z,68.50
2017-04-17T04:19:11.584Z,68.40
2017-04-17T04:20:10.701Z,68.30
2017-04-17T04:21:09.809Z,68.30
2017-04-17T04:22:09.675Z,68.30
2017-04-17T04:23:08.824Z,68.30
2017-04-17T04:24:07.992Z,68.30
2017-04-17T04:25:07.840Z,68.40
2017-04-17T04:26:06.960Z,68.50
2017-04-17T04:27:06.104Z,68.50
2017-04-17T04:28:05.204Z,68.70
2017-04-17T04:29:04.331Z,68.30
2017-04-17T04:30:04.188Z,68.30
2017-04-17T04:31:03.288Z,68.50
2017-04-17T04:32:02.404Z,68.70
2017-04-17T04:33:02.256Z,69.30
2017-04-17T04:34:01.384Z,68.90
2017-04-17T04:35:00.500Z,68.80
2017-04-17T04:35:59.612Z,68.40
2017-04-17T04:36:58.720Z,68.40
2017-04-17T04:37:57.851Z,68.30
2017-04-17T04:38:56.968Z,68.40
2017-04-17T04:39:56.091Z,68.60
2017-04-17T04:40:55.236Z,68.80
2017-04-17T04:41:54.349Z,68.80
2017-04-17T04:42:53.469Z,68.90
2017-04-17T04:43:53.328Z,68.60
2017-04-17T04:44:52.505Z,68.40
2017-04-17T04:45:51.612Z,68.20
2017-04-17T04:46:50.728Z,67.90
2017-04-17T04:47:50.581Z,68.80
2017-04-17T04:48:49.693Z,67.80
2017-04-17T04:49:48.802Z,67.70
2017-04-17T04:50:48.672Z,67.50
2017-04-17T04:51:47.811Z,67.70
2017-04-17T04:52:46.908Z,67.90
2017-04-17T04:53:46.013Z,68.10
2017-04-17T04:54:45.147Z,68.00
2017-04-17T04:55:44.283Z,67.80
2017-04-17T04:56:43.388Z,68.00
2017-04-17T04:57:42.484Z,68.20
2017-04-17T04:58:41.575Z,68.30
2017-04-17T04:59:40.705Z,68.20
2017-04-17T05:00:39.826Z,68.10
2017-04-17T05:01:39.064Z,67.90
2017-04-17T05:02:38.176Z,68.20
2017-04-17T05:03:37.272Z,68.00
2017-04-17T05:04:36.370Z,68.30
2017-04-17T05:05:35.472Z,68.30
2017-04-17T05:06:34.823Z,68.30
2017-04-17T05:07:33.924Z,68.60
2017-04-17T05:08:33.297Z,68.20
2017-04-17T05:09:32.404Z,68.10
2017-04-17T05:10:31.500Z,68.10
2017-04-17T05:11:30.620Z,68.10
2017-04-17T05:12:30.485Z,68.10
2017-04-17T05:13:29.592Z,68.30
2017-04-17T05:15:28.119Z,68.30
2017-04-17T05:16:27.239Z,68.20
2017-04-17T05:17:26.360Z,68.10
2017-04-17T05:18:26.202Z,68.00
2017-04-17T05:19:25.303Z,68.00
2017-04-17T05:20:24.404Z,68.30
2017-04-17T05:21:23.504Z,68.60
2017-04-17T05:22:22.632Z,68.60
2017-04-17T05:23:21.736Z,68.30
2017-04-17T05:24:20.828Z,68.40
2017-04-17T05:25:19.936Z,68.20
2017-04-17T05:26:19.036Z,68.10
2017-04-17T05:27:18.884Z,68.10
2017-04-17T05:28:18.013Z,67.90
2017-04-17T05:29:17.121Z,67.80
2017-04-17T05:30:16.952Z,67.70
2017-04-17T05:31:16.060Z,68.00
2017-04-17T05:32:15.160Z,68.20
2017-04-17T05:33:14.521Z,68.00
2017-04-17T05:34:13.612Z,68.10
2017-04-17T05:35:12.732Z,68.20
2017-04-17T05:36:11.827Z,67.80
2017-04-17T05:37:10.931Z,67.90
2017-04-17T05:38:10.780Z,67.90
2017-04-17T05:39:11.460Z,67.90
2017-04-17T05:40:10.639Z,67.80
2017-04-17T05:41:10.487Z,67.60
2017-04-17T05:42:09.581Z,67.60
2017-04-17T05:43:08.676Z,67.00
2017-04-17T05:44:08.045Z,67.00
2017-04-17T05:45:07.140Z,67.10
2017-04-17T05:46:06.247Z,66.90
2017-04-17T05:47:05.360Z,66.80
2017-04-17T05:48:05.208Z,67.00
2017-04-17T05:50:10.424Z,66.70
2017-04-17T05:51:09.540Z,66.70
2017-04-17T05:52:08.643Z,66.70
2017-04-17T05:53:07.731Z,66.40
2017-04-17T05:54:06.819Z,66.70
2017-04-17T05:55:05.948Z,66.70
2017-04-17T05:56:11.836Z,66.70
2017-04-17T05:57:10.959Z,66.70
2017-04-17T05:58:10.813Z,66.40
2017-04-17T05:59:09.912Z,66.20
2017-04-17T06:00:09.023Z,66.50
2017-04-17T06:01:08.120Z,66.50
2017-04-17T06:02:07.972Z,65.90
2017-04-17T06:03:07.080Z,66.10
2017-04-17T06:04:06.196Z,66.10
2017-04-17T06:05:06.043Z,65.90
2017-04-17T06:06:05.163Z,65.70
2017-04-17T06:07:04.275Z,65.50
2017-04-17T06:08:03.456Z,65.60
2017-04-17T06:09:03.417Z,65.50
2017-04-17T06:10:02.520Z,65.20
2017-04-17T06:12:01.059Z,65.10
2017-04-17T06:13:00.150Z,64.60
2017-04-17T06:13:59.264Z,64.30
2017-04-17T06:14:58.360Z,64.50
2017-04-17T06:16:57.628Z,64.60
2017-04-17T06:17:56.735Z,64.50
2017-04-17T06:18:55.841Z,65.00
2017-04-17T06:19:55.689Z,65.00
2017-04-17T06:20:54.792Z,64.60
2017-04-17T06:21:53.911Z,64.00
2017-04-17T06:22:53.016Z,63.90
2017-04-17T06:23:52.197Z,64.20
2017-04-17T06:24:52.100Z,64.00
2017-04-17T06:25:51.959Z,64.00
2017-04-17T06:26:51.084Z,63.80
2017-04-17T06:27:50.541Z,63.40
2017-04-17T06:28:49.640Z,63.30
2017-04-17T06:29:48.773Z,62.90
2017-04-17T06:30:47.876Z,62.60
2017-04-17T06:31:46.981Z,62.80
2017-04-17T06:32:46.096Z,62.80
2017-04-17T06:33:45.194Z,62.80
2017-04-17T06:34:44.292Z,62.90
2017-04-17T06:35:43.396Z,62.80
2017-04-17T06:36:42.503Z,63.10
2017-04-17T06:37:41.615Z,63.00
2017-04-17T06:38:40.719Z,63.30
2017-04-17T06:39:40.568Z,63.30
2017-04-17T06:40:39.670Z,64.30
2017-04-17T06:41:38.768Z,63.00
2017-04-17T06:42:37.905Z,63.10
2017-04-17T06:43:37.013Z,63.60
2017-04-17T06:44:36.113Z,64.30
2017-04-17T06:45:35.264Z,64.90
2017-04-17T06:46:34.372Z,64.50
2017-04-17T06:47:33.470Z,66.60
2017-04-17T06:48:32.588Z,66.30
2017-04-17T06:49:31.688Z,66.90
2017-04-17T06:50:30.872Z,66.50
2017-04-17T06:51:29.988Z,67.30
2017-04-17T06:52:29.105Z,67.90
2017-04-17T06:53:28.472Z,68.60
2017-04-17T06:54:27.564Z,69.00
2017-04-17T06:55:26.664Z,68.50
2017-04-17T06:56:25.760Z,69.00
2017-04-17T06:57:24.895Z,70.10
2017-04-17T06:58:24.004Z,69.30
2017-04-17T06:59:23.134Z,67.80
2017-04-17T07:00:22.317Z,68.10
2017-04-17T07:01:21.412Z,68.60
2017-04-17T07:02:21.252Z,68.50
2017-04-17T07:03:20.355Z,69.70
2017-04-17T07:04:19.736Z,69.60
2017-04-17T07:05:18.848Z,69.80
2017-04-17T07:06:17.943Z,69.20
2017-04-17T07:07:17.057Z,68.90
2017-04-17T07:08:16.909Z,67.50
2017-04-17T07:09:16.009Z,67.10
2017-04-17T07:10:15.124Z,67.10
2017-04-17T07:11:14.219Z,67.10
2017-04-17T07:12:13.319Z,67.50
2017-04-17T07:13:12.435Z,67.30
2017-04-17T07:14:11.544Z,66.30
2017-04-17T07:15:11.000Z,66.00
2017-04-17T07:16:10.096Z,65.90
2017-04-17T07:17:09.228Z,65.80
2017-04-17T07:18:08.329Z,66.30
2017-04-17T07:19:07.436Z,66.90
2017-04-17T07:20:06.544Z,65.80
2017-04-17T07:21:05.672Z,66.10
2017-04-17T07:22:05.507Z,65.80
2017-04-17T07:23:04.625Z,66.70
2017-04-17T07:24:03.728Z,65.10
2017-04-17T07:25:02.827Z,65.80
2017-04-17T07:26:02.268Z,66.10
2017-04-17T07:27:01.397Z,65.60
2017-04-17T07:28:01.255Z,64.90
2017-04-17T07:29:00.353Z,63.90
2017-04-17T07:29:59.457Z,64.50
2017-04-17T07:30:58.561Z,62.90
2017-04-17T07:31:57.680Z,63.50
2017-04-17T07:32:56.776Z,63.70
2017-04-17T07:33:55.880Z,64.20
2017-04-17T07:34:55.012Z,63.60
2017-04-17T07:35:54.878Z,63.80
2017-04-17T07:36:54.236Z,62.90
2017-04-17T07:37:53.365Z,62.00
2017-04-17T07:38:52.464Z,61.10
2017-04-17T07:39:51.592Z,60.80
2017-04-17T07:40:50.693Z,61.10
2017-04-17T07:41:49.788Z,60.80
2017-04-17T07:42:48.936Z,60.70
2017-04-17T07:43:48.041Z,61.40
2017-04-17T07:44:47.161Z,60.60
2017-04-17T07:45:46.271Z,60.80
2017-04-17T07:46:46.126Z,61.30
2017-04-17T07:47:45.236Z,60.00
2017-04-17T07:48:44.369Z,59.60
2017-04-17T07:49:43.463Z,59.70
2017-04-17T07:50:42.695Z,59.60
2017-04-17T07:51:41.802Z,59.80
2017-04-17T07:52:40.921Z,59.70
2017-04-17T07:53:40.073Z,59.00
2017-04-17T07:54:39.181Z,59.30
2017-04-17T07:55:38.312Z,58.70
2017-04-17T07:56:37.417Z,58.90
2017-04-17T07:57:36.536Z,59.30
2017-04-17T07:58:36.381Z,58.70
2017-04-17T07:59:35.513Z,58.80
2017-04-17T08:00:35.352Z,58.70
2017-04-17T08:01:34.457Z,58.30
2017-04-17T08:02:33.728Z,58.40
2017-04-17T08:03:32.842Z,58.80
2017-04-17T08:04:31.964Z,59.10
2017-04-17T08:05:31.064Z,58.90
2017-04-17T08:06:30.747Z,58.20
2017-04-17T08:07:29.855Z,58.50
2017-04-17T08:08:28.988Z,58.30
2017-04-17T08:09:28.088Z,58.10
2017-04-17T08:10:27.176Z,58.20
2017-04-17T08:11:26.311Z,58.80
2017-04-17T08:12:25.412Z,58.50
2017-04-17T08:13:24.531Z,58.30
2017-04-17T08:14:23.636Z,58.10
2017-04-17T08:15:22.735Z,57.80
2017-04-17T08:16:21.835Z,57.80
2017-04-17T08:17:20.966Z,58.20
2017-04-17T08:18:20.334Z,57.70
2017-04-17T08:19:19.449Z,57.50
2017-04-17T08:20:18.552Z,57.40
2017-04-17T08:21:18.387Z,57.40
2017-04-17T08:22:17.502Z,57.50
2017-04-17T08:23:16.616Z,57.60
2017-04-17T08:24:15.744Z,57.40
2017-04-17T08:25:14.848Z,57.60
2017-04-17T08:26:13.956Z,57.80
2017-04-17T08:27:13.048Z,57.80
2017-04-17T08:28:13.254Z,57.90
2017-04-17T08:29:12.613Z,57.60
2017-04-17T08:30:11.829Z,57.50
2017-04-17T08:31:10.928Z,57.60
2017-04-17T08:32:10.398Z,57.80
2017-04-17T08:33:09.712Z,57.80
2017-04-17T08:34:08.847Z,57.10
2017-04-17T08:35:09.459Z,57.60
2017-04-17T08:36:08.599Z,58.10
2017-04-17T08:37:07.829Z,56.80
2017-04-17T08:38:07.695Z,57.00
2017-04-17T08:39:06.866Z,57.00
2017-04-17T08:40:06.110Z,55.70
2017-04-17T08:41:05.298Z,55.80
2017-04-17T08:42:04.470Z,55.90
2017-04-17T08:43:04.370Z,56.30
2017-04-17T08:44:04.273Z,56.50
2017-04-17T08:45:04.161Z,56.50
2017-04-17T08:46:03.336Z,55.70
2017-04-17T08:47:02.589Z,56.30
2017-04-17T08:48:01.728Z,56.30
2017-04-17T08:49:00.909Z,55.90
2017-04-17T08:50:00.093Z,55.90
2017-04-17T08:50:59.244Z,55.50
2017-04-17T08:51:58.356Z,55.50
2017-04-17T08:52:57.456Z,55.80
2017-04-17T08:53:56.548Z,56.10
2017-04-17T08:54:55.675Z,55.80
2017-04-17T08:55:54.788Z,56.00
2017-04-17T08:56:53.917Z,56.30
2017-04-17T08:57:53.049Z,56.50
2017-04-17T08:58:52.167Z,56.20
2017-04-17T08:59:51.272Z,56.20
2017-04-17T09:00:51.139Z,56.30
2017-04-17T09:01:50.272Z,56.80
2017-04-17T09:02:50.116Z,57.20
2017-04-17T09:03:49.221Z,57.20
2017-04-17T09:04:48.319Z,57.50
2017-04-17T09:05:47.420Z,57.60
2017-04-17T09:06:47.268Z,58.70
2017-04-17T09:07:46.928Z,57.90
2017-04-17T09:08:46.781Z,58.50
2017-04-17T09:09:45.902Z,58.00
2017-04-17T09:10:45.016Z,57.80
2017-04-17T09:11:44.135Z,57.30
2017-04-17T09:12:43.261Z,56.90
2017-04-17T09:13:42.393Z,56.80
2017-04-17T09:14:41.507Z,57.20
2017-04-17T09:15:40.606Z,56.30
2017-04-17T09:16:39.720Z,56.80
2017-04-17T09:17:46.239Z,56.90
2017-04-17T09:18:45.340Z,57.10
2017-04-17T09:19:44.443Z,57.00
2017-04-17T09:20:44.284Z,57.30
2017-04-17T09:21:43.500Z,57.10
2017-04-17T09:22:42.646Z,57.50
2017-04-17T09:23:41.756Z,58.40
2017-04-17T09:24:41.096Z,59.20
2017-04-17T09:25:40.951Z,58.10
2017-04-17T09:26:40.052Z,58.10
2017-04-17T09:27:39.173Z,57.30
2017-04-17T09:28:38.272Z,57.40
2017-04-17T09:29:37.408Z,57.10
2017-04-17T09:30:36.511Z,56.70
2017-04-17T09:31:35.612Z,55.90
2017-04-17T09:32:35.477Z,56.30
2017-04-17T09:33:34.632Z,55.70
2017-04-17T09:34:34.040Z,55.90
2017-04-17T09:35:33.432Z,56.00
2017-04-17T09:36:32.542Z,55.70
2017-04-17T09:37:31.648Z,55.10
2017-04-17T09:38:30.784Z,54.90
2017-04-17T09:39:29.880Z,55.40
2017-04-17T09:41:35.216Z,55.20
2017-04-17T09:42:34.319Z,54.60
2017-04-17T09:43:33.437Z,53.60
2017-04-17T09:44:33.289Z,52.10
2017-04-17T09:45:32.397Z,53.50
2017-04-17T09:46:31.495Z,53.60
2017-04-17T09:47:30.595Z,53.60
2017-04-17T09:48:30.443Z,53.10
2017-04-17T09:49:29.560Z,52.40
2017-04-17T09:50:28.683Z,52.60
2017-04-17T09:51:27.788Z,53.30
2017-04-17T09:52:26.911Z,53.60
2017-04-17T09:53:26.787Z,52.90
2017-04-17T09:54:26.163Z,52.30
2017-04-17T09:55:25.273Z,52.40
2017-04-17T09:56:24.377Z,52.00
2017-04-17T09:57:23.496Z,52.20
2017-04-17T09:58:23.345Z,52.60
2017-04-17T09:59:22.453Z,53.10
2017-04-17T10:00:21.572Z,53.10
2017-04-17T10:01:20.704Z,52.90
2017-04-17T10:02:19.808Z,53.20
2017-04-17T10:03:18.920Z,52.80
2017-04-17T10:04:18.024Z,53.10
2017-04-17T10:05:17.151Z,53.60
2017-04-17T10:06:16.257Z,53.30
2017-04-17T10:07:15.348Z,53.50
2017-04-17T10:08:14.444Z,53.10
2017-04-17T10:09:13.556Z,52.50
2017-04-17T10:10:12.697Z,53.10
2017-04-17T10:11:11.815Z,53.40
2017-04-17T10:12:11.673Z,52.90
2017-04-17T10:13:10.772Z,52.50
2017-04-17T10:14:09.885Z,52.40
2017-04-17T10:15:09.724Z,51.90
2017-04-17T10:16:08.849Z,51.90
2017-04-17T10:17:07.952Z,52.20
2017-04-17T10:18:07.068Z,52.20
2017-04-17T10:19:06.167Z,51.20
2017-04-17T10:20:05.279Z,51.40
2017-04-17T10:21:04.386Z,51.60
2017-04-17T10:22:03.513Z,51.90
2017-04-17T10:23:02.624Z,51.10
2017-04-17T10:24:01.831Z,51.50
2017-04-17T10:25:00.943Z,51.40
2017-04-17T10:26:00.048Z,50.90
2017-04-17T10:26:59.573Z,51.00
2017-04-17T10:27:58.728Z,51.30
2017-04-17T10:28:57.832Z,51.20
2017-04-17T10:29:56.935Z,51.30
2017-04-17T10:30:56.384Z,51.60
2017-04-17T10:31:55.477Z,51.70
2017-04-17T10:32:54.591Z,51.80
2017-04-17T10:33:53.702Z,51.90
2017-04-17T10:34:52.808Z,52.10
2017-04-17T10:35:51.943Z,51.60
2017-04-17T10:36:51.044Z,52.00
2017-04-17T10:37:50.160Z,52.90
2017-04-17T10:38:49.302Z,52.50
2017-04-17T10:39:48.399Z,52.50
2017-04-17T10:40:47.503Z,51.90
2017-04-17T10:41:46.608Z,52.20
2017-04-17T10:42:45.723Z,52.60
2017-04-17T10:43:44.841Z,53.40
2017-04-17T10:44:43.945Z,54.20
2017-04-17T10:45:43.057Z,55.80
2017-04-17T10:46:42.161Z,56.40
2017-04-17T10:47:41.584Z,56.50
2017-04-17T10:48:40.680Z,57.30
2017-04-17T10:49:39.788Z,58.30
2017-04-17T10:50:38.968Z,58.30
2017-04-17T10:51:38.069Z,59.60
2017-04-17T10:52:37.168Z,60.00
2017-04-17T10:53:37.028Z,61.90
2017-04-17T10:54:36.126Z,61.80
2017-04-17T10:55:35.501Z,63.30
2017-04-17T10:56:34.604Z,63.20
2017-04-17T10:57:33.708Z,63.40
2017-04-17T10:58:33.055Z,65.00
2017-04-17T10:59:32.161Z,63.30
2017-04-17T11:00:31.264Z,65.20
2017-04-17T11:01:30.368Z,66.70
2017-04-17T11:02:30.212Z,67.00
2017-04-17T11:03:29.324Z,64.90
2017-04-17T11:04:28.470Z,63.00
2017-04-17T11:05:27.632Z,62.80
2017-04-17T11:06:27.737Z,62.70
2017-04-17T11:07:27.580Z,63.50
2017-04-17T11:08:26.680Z,63.30
2017-04-17T11:09:25.808Z,63.40
2017-04-17T11:10:24.911Z,62.90
2017-04-17T11:11:24.023Z,65.30
2017-04-17T11:12:23.133Z,63.10
2017-04-17T11:13:22.236Z,63.70
2017-04-17T11:14:21.340Z,63.70
2017-04-17T11:15:21.191Z,65.30
2017-04-17T11:16:20.295Z,65.40
2017-04-17T11:17:19.395Z,65.00
2017-04-17T11:18:18.500Z,64.10
2017-04-17T11:19:18.343Z,64.60
2017-04-17T11:20:17.464Z,63.10
2017-04-17T11:21:16.560Z,64.00
2017-04-17T11:22:15.693Z,64.50
2017-04-17T11:23:14.796Z,64.70
2017-04-17T11:24:13.900Z,65.10
2017-04-17T11:25:13.020Z,65.60
2017-04-17T11:26:12.882Z,66.50
2017-04-17T11:27:11.976Z,66.90
2017-04-17T11:28:11.093Z,66.80
2017-04-17T11:29:10.929Z,66.70
2017-04-17T11:30:10.060Z,66.40
2017-04-17T11:31:09.204Z,65.80
2017-04-17T11:32:08.303Z,63.70
2017-04-17T11:33:07.398Z,65.20
2017-04-17T11:34:06.500Z,65.60
2017-04-17T11:35:05.598Z,66.40
2017-04-17T11:36:04.700Z,66.20
2017-04-17T11:37:04.565Z,66.00
2017-04-17T11:38:03.668Z,65.30
2017-04-17T11:39:02.804Z,66.00
2017-04-17T11:40:01.913Z,68.10
2017-04-17T11:41:01.017Z,68.20
2017-04-17T11:42:00.372Z,68.00
2017-04-17T11:42:59.472Z,68.40
2017-04-17T11:43:58.612Z,68.90
2017-04-17T11:44:57.729Z,68.00
2017-04-17T11:45:57.043Z,67.00
2017-04-17T11:46:56.147Z,64.00
2017-04-17T11:47:55.260Z,64.20
2017-04-17T11:48:54.370Z,63.90
2017-04-17T11:49:53.477Z,63.20
2017-04-17T11:50:52.604Z,62.40
2017-04-17T11:51:51.704Z,64.00
2017-04-17T11:52:50.828Z,65.50
2017-04-17T11:53:49.932Z,62.80
2017-04-17T11:54:49.052Z,63.60
2017-04-17T11:55:48.896Z,64.30
2017-04-17T11:56:48.005Z,64.90
2017-04-17T11:57:47.118Z,63.90
2017-04-17T11:58:46.972Z,64.10
2017-04-17T11:59:46.073Z,63.80
2017-04-17T12:00:45.185Z,60.70
2017-04-17T12:01:44.794Z,61.60
2017-04-17T12:02:43.907Z,62.70
2017-04-17T12:03:43.015Z,62.70
2017-04-17T12:04:42.120Z,61.30
2017-04-17T12:05:41.216Z,61.90
2017-04-17T12:06:40.315Z,62.80
2017-04-17T12:07:40.181Z,62.00
2017-04-17T12:08:39.289Z,61.70
2017-04-17T12:09:39.164Z,61.60
2017-04-17T12:10:38.273Z,61.30
2017-04-17T12:11:37.367Z,61.10
2017-04-17T12:12:36.496Z,60.00
2017-04-17T12:13:35.608Z,59.80
2017-04-17T12:14:34.708Z,60.40
2017-04-17T12:15:33.808Z,60.10
2017-04-17T12:16:32.911Z,59.70
2017-04-17T12:17:32.995Z,60.40
2017-04-17T12:18:32.104Z,60.70
2017-04-17T12:19:31.956Z,61.00
2017-04-17T12:20:31.052Z,60.80
2017-04-17T12:21:30.156Z,62.00
2017-04-17T12:22:29.263Z,62.50
2017-04-17T12:23:28.380Z,62.10
2017-04-17T12:24:27.484Z,62.30
2017-04-17T12:25:26.587Z,62.30
2017-04-17T12:26:25.689Z,62.20
2017-04-17T12:27:25.080Z,61.80
2017-04-17T12:28:24.216Z,62.70
2017-04-17T12:29:23.329Z,63.30
2017-04-17T12:30:22.430Z,65.10
2017-04-17T12:31:21.551Z,65.80
2017-04-17T12:32:20.653Z,66.70
2017-04-17T12:33:19.752Z,68.90
2017-04-17T12:34:18.864Z,69.10
2017-04-17T12:35:17.964Z,69.40
2017-04-17T12:36:17.139Z,68.30
2017-04-17T12:37:16.248Z,69.00
2017-04-17T12:38:15.492Z,70.10
2017-04-17T12:39:14.608Z,70.00
2017-04-17T12:40:13.705Z,70.70
2017-04-17T12:41:12.808Z,71.20
2017-04-17T12:42:12.647Z,70.90
2017-04-17T12:43:11.745Z,71.60
2017-04-17T12:44:10.837Z,71.50
2017-04-17T12:45:09.987Z,72.70
2017-04-17T12:46:09.091Z,72.40
2017-04-17T12:47:08.184Z,72.50
2017-04-17T12:48:07.283Z,72.30
2017-04-17T12:49:06.419Z,72.10